KNBG

New Orleans NAS JRB / Alvin Callender Field Airport

New Orleans, Louisiana, USA
METAR KNBG 210355Z AUTO 13008KT 10SM CLR 13/11 A3020 RMK AO2 SLP226 T01330111 PWINO PNO $
Observed Flight Rules
Jan-21 @ 03:55 UTC (57 minutes ago) Visual Flight Rules
Wind Visibility Clouds
130° at 8 knots 10 miles
  • Clear skies
Temperatures Readings
Current 13°C / 55°F
Dewpoint 11°C / 52°F
Humidity 88%
Altimeter 30.2" Hg
Pressure 1022.6 hPa
Elevation 1
METAR KNBG 210355Z AUTO 13008KT 10SM CLR 13/11 A3020 RMK AO2 SLP226 T01330111 PWINO PNO $
Observed Flight Rules
Jan-21 @ 03:55 UTC
(57 minutes ago)
VFR
Wind Visibility
130° at 8 knots 10 miles
Clouds
  • Clear skies
Temperature Dewpoint
13°C / 55°F 11°C / 52°F
Humidity Altimeter Pressure
88% 30.2" Hg 1022.6 hPa